Time;durP1;ratioP1;P1;durP2;ratioP2;P2;SDS_P1;SDS_P2;PMS_P1;PMS_P2;Temp;Humidity;BMP_temperature;BMP_pressure;BME280_temperature;BME280_humidity;BME280_pressure;Samples;Min_cycle;Max_cycle;Signal;HPM_P1;HPM_P2
2022/04/24 00:01:25;;;;;;;23.90;15.38;;;;;;;10.06;100.00;99618.59;5588101;31;33436;-67
2022/04/24 00:04:28;;;;;;;23.92;15.35;;;;;;;10.11;100.00;99619.69;5588598;31;32569;-67
2022/04/24 00:07:31;;;;;;;23.62;15.20;;;;;;;10.09;100.00;99616.38;5588982;31;34232;-67
2022/04/24 00:10:35;;;;;;;21.83;13.55;;;;;;;10.11;100.00;99609.09;5589146;31;34716;-67
2022/04/24 00:13:40;;;;;;;19.50;12.75;;;;;;;10.15;100.00;99610.38;5588499;31;33292;-67
2022/04/24 00:16:43;;;;;;;21.70;14.45;;;;;;;10.10;100.00;99607.44;5575581;31;35154;-67
2022/04/24 00:19:49;;;;;;;25.12;14.68;;;;;;;10.12;100.00;99608.06;5588366;31;32421;-67
2022/04/24 00:22:53;;;;;;;18.42;13.27;;;;;;;10.19;100.00;99609.03;5588180;31;33115;-67
2022/04/24 00:25:56;;;;;;;22.33;14.02;;;;;;;10.16;100.00;99606.75;5574813;31;32571;-67
2022/04/24 00:28:59;;;;;;;21.92;14.13;;;;;;;10.19;100.00;99605.53;5588598;31;34225;-67
2022/04/24 00:32:01;;;;;;;22.13;13.40;;;;;;;10.17;100.00;99594.28;5587808;31;32586;-67
2022/04/24 00:35:05;;;;;;;20.92;13.77;;;;;;;10.09;100.00;99589.87;5588710;31;33945;-67
2022/04/24 00:38:07;;;;;;;20.10;13.43;;;;;;;10.09;100.00;99576.63;5588625;31;34584;-67
2022/04/24 00:41:10;;;;;;;21.80;13.77;;;;;;;10.06;100.00;99566.41;5587979;31;33259;-67
2022/04/24 00:44:14;;;;;;;20.73;13.32;;;;;;;10.07;100.00;99559.28;5587184;31;32435;-67
2022/04/24 00:47:22;;;;;;;18.85;13.48;;;;;;;9.94;100.00;99567.88;5588354;31;33913;-67
2022/04/24 00:50:25;;;;;;;19.80;12.88;;;;;;;9.87;100.00;99556.38;5574657;31;32318;-67
2022/04/24 00:53:27;;;;;;;19.42;13.18;;;;;;;9.81;100.00;99565.87;5588306;31;34746;-67
2022/04/24 00:56:32;;;;;;;17.67;12.10;;;;;;;9.69;100.00;99574.44;5587638;31;33701;-67
2022/04/24 00:59:37;;;;;;;19.50;12.45;;;;;;;9.69;100.00;99571.78;5587618;31;34019;-67
2022/04/24 01:02:39;;;;;;;20.50;13.82;;;;;;;9.77;100.00;99569.06;5588116;31;33985;-67
2022/04/24 01:05:42;;;;;;;17.15;12.07;;;;;;;9.75;100.00;99563.94;5587286;31;32799;-67
2022/04/24 01:08:45;;;;;;;18.87;12.37;;;;;;;9.81;100.00;99565.87;5587206;31;33549;-67
2022/04/24 01:11:52;;;;;;;18.83;12.35;;;;;;;9.81;100.00;99571.16;5587334;31;34541;-67
2022/04/24 01:14:55;;;;;;;16.42;11.73;;;;;;;9.83;100.00;99581.56;5586835;31;32508;-67
2022/04/24 01:17:59;;;;;;;19.77;12.25;;;;;;;9.80;100.00;99566.03;5587365;31;33564;-67
2022/04/24 01:21:09;;;;;;;17.73;11.38;;;;;;;9.84;100.00;99569.97;5587307;31;32354;-67
2022/04/24 01:24:13;;;;;;;;;;;;;;;9.92;100.00;99572.56;5587482;31;33187;-67
2022/04/24 01:27:15;;;;;;;18.67;12.27;;;;;;;9.90;100.00;99572.72;5587746;31;34996;-67
2022/04/24 01:30:18;;;;;;;19.80;12.73;;;;;;;9.90;100.00;99570.06;5587801;31;33983;-67
2022/04/24 01:33:21;;;;;;;20.33;12.80;;;;;;;9.93;100.00;99563.56;5587590;31;33889;-67
2022/04/24 01:36:24;;;;;;;19.52;11.85;;;;;;;9.86;100.00;99562.69;5587504;31;34564;-67
2022/04/24 01:39:26;;;;;;;17.65;11.93;;;;;;;9.86;100.00;99554.72;5589858;31;34841;-67
2022/04/24 01:42:29;;;;;;;19.70;12.27;;;;;;;9.82;100.00;99551.63;5590413;31;34614;-67
2022/04/24 01:45:31;;;;;;;18.90;11.65;;;;;;;9.81;100.00;99554.44;5589781;31;34747;-67
2022/04/24 01:48:34;;;;;;;17.23;11.12;;;;;;;9.73;100.00;99560.66;5590317;31;34014;-67
2022/04/24 01:51:37;;;;;;;17.35;11.35;;;;;;;9.69;100.00;99547.94;5590505;31;33918;-67
2022/04/24 01:54:40;;;;;;;16.92;11.85;;;;;;;9.64;100.00;99545.84;5590550;31;33961;-67
2022/04/24 01:57:43;;;;;;;18.37;12.45;;;;;;;9.63;100.00;99546.06;5590411;31;34573;-67
2022/04/24 02:00:45;;;;;;;19.87;11.63;;;;;;;9.64;100.00;99542.38;5589652;31;32388;-67
2022/04/24 02:03:48;;;;;;;16.85;11.07;;;;;;;9.69;100.00;99542.66;5589195;31;32771;-67
2022/04/24 02:06:51;;;;;;;17.58;11.00;;;;;;;9.65;100.00;99542.19;5590284;31;34081;-68
2022/04/24 02:09:54;;;;;;;20.62;11.32;;;;;;;9.62;100.00;99547.06;5589442;31;34212;-67
2022/04/24 02:12:57;;;;;;;18.25;10.98;;;;;;;9.63;100.00;99544.22;5590223;31;33880;-67
2022/04/24 02:16:00;;;;;;;17.98;11.82;;;;;;;9.57;100.00;99542.31;5589930;31;34101;-67
2022/04/24 02:19:03;;;;;;;16.00;10.93;;;;;;;9.57;100.00;99543.13;5590033;31;34491;-67
2022/04/24 02:22:05;;;;;;;16.10;11.50;;;;;;;9.55;100.00;99541.66;5589334;31;32347;-67
2022/04/24 02:25:08;;;;;;;18.55;11.18;;;;;;;9.46;100.00;99540.09;5589973;31;34297;-67
2022/04/24 02:28:10;;;;;;;17.65;10.80;;;;;;;9.43;100.00;99535.16;5575800;31;33209;-67
2022/04/24 02:31:13;;;;;;;17.55;11.45;;;;;;;9.51;100.00;99543.03;5584301;31;161422;-67
2022/04/24 02:34:16;;;;;;;16.65;11.52;;;;;;;9.47;100.00;99537.28;5590138;31;34256;-67
2022/04/24 02:37:19;;;;;;;19.17;12.07;;;;;;;9.53;100.00;99539.19;5590019;31;34414;-67
2022/04/24 02:40:21;;;;;;;18.25;11.88;;;;;;;9.54;100.00;99529.41;5590041;31;34881;-67
2022/04/24 02:43:24;;;;;;;18.15;10.77;;;;;;;9.51;100.00;99535.91;5563213;31;34416;-67
2022/04/24 02:46:27;;;;;;;17.65;11.30;;;;;;;9.51;100.00;99529.78;5589882;31;33942;-67
2022/04/24 02:49:30;;;;;;;15.38;10.98;;;;;;;9.47;100.00;99531.97;5589737;31;35158;-67
2022/04/24 02:52:32;;;;;;;17.62;10.65;;;;;;;9.46;100.00;99537.44;5588820;31;33356;-67
2022/04/24 02:55:35;;;;;;;16.67;11.75;;;;;;;9.46;100.00;99532.16;5588883;31;32447;-67
2022/04/24 02:58:38;;;;;;;17.98;11.12;;;;;;;9.56;100.00;99538.00;5589810;31;34011;-67
2022/04/24 03:01:43;;;;;;;17.42;11.32;;;;;;;9.50;100.00;99533.44;5589873;31;34687;-67
2022/04/24 03:04:46;;;;;;;16.92;11.02;;;;;;;9.47;100.00;99517.91;5589128;31;34693;-67
2022/04/24 03:07:49;;;;;;;16.42;10.73;;;;;;;9.54;100.00;99529.41;5589806;31;34730;-67
2022/04/24 03:10:51;;;;;;;18.25;11.02;;;;;;;9.58;100.00;99541.31;5589664;31;34270;-67
2022/04/24 03:13:55;;;;;;;16.33;10.40;;;;;;;9.57;100.00;99535.19;5589806;31;34004;-67
2022/04/24 03:16:57;;;;;;;16.48;11.43;;;;;;;9.56;100.00;99522.94;5589086;31;33666;-67
2022/04/24 03:20:07;;;;;;;15.00;10.57;;;;;;;9.57;100.00;99521.94;5575777;31;33193;-67
2022/04/24 03:23:10;;;;;;;17.85;11.63;;;;;;;9.54;100.00;99524.94;5590058;31;34557;-67
2022/04/24 03:26:13;;;;;;;15.82;10.40;;;;;;;9.55;100.00;99517.81;5589011;31;32311;-67
2022/04/24 03:29:16;;;;;;;18.77;11.57;;;;;;;9.56;100.00;99503.59;5589533;31;33940;-67
2022/04/24 03:32:19;;;;;;;17.90;11.88;;;;;;;9.69;100.00;99502.94;5589483;31;34002;-67
2022/04/24 03:35:26;;;;;;;16.40;11.38;;;;;;;9.62;100.00;99513.44;5589589;31;34599;-66
2022/04/24 03:38:29;;;;;;;15.70;10.88;;;;;;;9.61;100.00;99503.84;5588748;31;34501;-67
2022/04/24 03:41:32;;;;;;;16.52;11.40;;;;;;;9.57;100.00;99492.00;5589407;31;34063;-67
2022/04/24 03:44:34;;;;;;;17.95;11.38;;;;;;;9.55;100.00;99489.50;5588506;31;34042;-67
2022/04/24 03:47:38;;;;;;;17.30;11.27;;;;;;;9.51;100.00;99492.72;5589478;31;34672;-67
2022/04/24 03:50:41;;;;;;;16.85;11.07;;;;;;;9.46;100.00;99485.31;5588090;31;33571;-67
2022/04/24 03:53:43;;;;;;;18.30;11.60;;;;;;;9.54;100.00;99482.56;5589674;31;34435;-67
2022/04/24 03:56:47;;;;;;;16.77;11.80;;;;;;;9.54;100.00;99485.22;5588517;31;34685;-67
2022/04/24 03:59:49;;;;;;;16.98;10.65;;;;;;;9.52;100.00;99481.13;5589380;31;34516;-67
2022/04/24 04:02:53;;;;;;;17.75;11.93;;;;;;;9.48;100.00;99482.50;5589169;31;34038;-67
2022/04/24 04:05:56;;;;;;;18.65;11.45;;;;;;;9.63;100.00;99487.78;5588663;31;32360;-67
2022/04/24 04:08:58;;;;;;;17.87;12.07;;;;;;;9.55;100.00;99486.03;5588282;31;34715;-67
2022/04/24 04:12:02;;;;;;;17.87;11.68;;;;;;;9.54;100.00;99489.69;5588529;31;33537;-67
2022/04/24 04:15:06;;;;;;;18.90;11.68;;;;;;;9.57;100.00;99484.03;5589259;31;33878;-67
2022/04/24 04:18:09;;;;;;;18.60;12.00;;;;;;;9.56;100.00;99475.28;5588367;31;32699;-68
2022/04/24 04:21:12;;;;;;;17.67;11.27;;;;;;;9.55;100.00;99478.94;5589144;31;34807;-67
2022/04/24 04:24:15;;;;;;;18.80;13.02;;;;;;;9.57;100.00;99492.81;5589308;31;35270;-67
2022/04/24 04:27:18;;;;;;;19.50;11.63;;;;;;;9.58;100.00;99506.88;5589065;31;34077;-68
2022/04/24 04:30:21;;;;;;;18.85;12.60;;;;;;;9.68;100.00;99511.91;5589002;31;33880;-68
2022/04/24 04:33:24;;;;;;;17.90;12.18;;;;;;;9.66;100.00;99506.78;5588736;31;34554;-67
2022/04/24 04:36:27;;;;;;;19.95;12.40;;;;;;;9.56;100.00;99500.94;5588707;31;33875;-67
2022/04/24 04:39:29;;;;;;;18.60;12.02;;;;;;;9.64;100.00;99498.19;5588966;31;34094;-67
2022/04/24 04:42:32;;;;;;;18.55;12.20;;;;;;;9.78;100.00;99496.56;5588531;31;34296;-67
2022/04/24 04:45:35;;;;;;;18.65;12.55;;;;;;;9.66;100.00;99490.06;5588612;31;33981;-68
2022/04/24 04:48:38;;;;;;;20.08;12.40;;;;;;;9.72;100.00;99484.88;5588513;31;34609;-67
2022/04/24 04:51:40;;;;;;;19.42;12.37;;;;;;;9.68;100.00;99483.59;5588867;31;33980;-68
2022/04/24 04:54:43;;;;;;;20.42;13.20;;;;;;;9.69;100.00;99481.75;5587860;31;33374;-68
2022/04/24 04:57:47;;;;;;;20.15;13.43;;;;;;;9.75;100.00;99473.06;5587386;31;32786;-67
2022/04/24 05:00:50;;;;;;;20.25;12.52;;;;;;;9.76;100.00;99478.19;5587649;31;33345;-68
2022/04/24 05:03:52;;;;;;;20.20;12.70;;;;;;;9.75;100.00;99484.50;5587704;31;32858;-68
2022/04/24 05:06:55;;;;;;;20.45;12.18;;;;;;;9.86;100.00;99485.84;5587557;31;33611;-67
2022/04/24 05:09:58;;;;;;;21.10;13.68;;;;;;;10.03;100.00;99482.78;5587280;31;32449;-68
2022/04/24 05:13:01;;;;;;;17.10;12.30;;;;;;;10.13;100.00;99490.44;5588746;31;34469;-68
2022/04/24 05:16:04;;;;;;;20.73;13.52;;;;;;;10.03;100.00;99477.50;5591138;31;34100;-67
2022/04/24 05:19:07;;;;;;;19.37;12.57;;;;;;;10.24;100.00;99484.69;5590881;31;34002;-68
2022/04/24 05:22:09;;;;;;;22.33;14.77;;;;;;;10.21;100.00;99486.91;5590841;31;34105;-68
2022/04/24 05:25:14;;;;;;;21.48;13.75;;;;;;;10.26;100.00;99471.28;5590595;31;34673;-68
2022/04/24 05:28:17;;;;;;;21.42;13.73;;;;;;;10.25;100.00;99473.09;5590608;31;34202;-68
2022/04/24 05:31:20;;;;;;;23.50;13.65;;;;;;;10.33;100.00;99472.16;5590425;31;33836;-68
2022/04/24 05:34:23;;;;;;;19.33;13.00;;;;;;;10.46;100.00;99473.09;5590699;31;34559;-68
2022/04/24 05:37:26;;;;;;;19.48;13.10;;;;;;;10.57;100.00;99469.13;5576959;31;33177;-68
2022/04/24 05:40:28;;;;;;;20.37;13.52;;;;;;;10.76;100.00;99467.66;5590572;31;34102;-67
2022/04/24 05:43:31;;;;;;;21.67;13.55;;;;;;;10.61;100.00;99465.06;5590488;31;34285;-68
2022/04/24 05:46:34;;;;;;;22.83;13.30;;;;;;;10.79;100.00;99467.28;5589858;31;32275;-68
2022/04/24 05:49:37;;;;;;;20.52;13.20;;;;;;;10.98;100.00;99473.78;5590457;31;34361;-68
2022/04/24 05:52:40;;;;;;;18.02;12.98;;;;;;;11.18;100.00;99477.41;5590831;31;34399;-68
2022/04/24 05:55:43;;;;;;;23.12;14.52;;;;;;;10.83;100.00;99479.97;5590507;31;34613;-68
2022/04/24 05:58:46;;;;;;;23.38;13.70;;;;;;;10.78;100.00;99481.56;5589793;31;32759;-68
2022/04/24 06:01:48;;;;;;;19.02;13.13;;;;;;;11.01;100.00;99470.72;5589518;31;34615;-68
2022/04/24 06:04:53;;;;;;;23.20;14.85;;;;;;;11.05;100.00;99466.66;5576290;31;32773;-68
2022/04/24 06:07:56;;;;;;;21.77;13.25;;;;;;;11.11;100.00;99463.25;5589574;31;33954;-68
2022/04/24 06:10:59;;;;;;;20.40;12.77;;;;;;;11.08;100.00;99467.13;5589245;31;32757;-68
2022/04/24 06:14:02;;;;;;;21.35;14.60;;;;;;;10.92;100.00;99461.25;5589189;31;33911;-68
2022/04/24 06:17:05;;;;;;;23.75;15.05;;;;;;;11.06;100.00;99465.66;5590239;31;35305;-67
2022/04/24 06:20:09;;;;;;;25.12;15.02;;;;;;;10.94;100.00;99464.56;5588762;31;33983;-68
2022/04/24 06:23:12;;;;;;;24.50;14.98;;;;;;;11.07;100.00;99469.97;5590388;31;34313;-67
2022/04/24 06:26:16;;;;;;;21.73;14.38;;;;;;;11.37;100.00;99474.06;5589382;31;33286;-68
2022/04/24 06:29:19;;;;;;;23.55;13.77;;;;;;;11.54;100.00;99472.72;5589776;31;33951;-68
2022/04/24 06:32:21;;;;;;;25.30;14.68;;;;;;;11.79;100.00;99458.97;5588999;31;34896;-68
2022/04/24 06:35:25;;;;;;;24.17;15.35;;;;;;;11.86;100.00;99467.81;5576395;31;32453;-68
2022/04/24 06:38:27;;;;;;;23.23;15.20;;;;;;;11.76;100.00;99462.84;5589248;31;33407;-68
2022/04/24 06:41:30;;;;;;;25.05;15.57;;;;;;;12.12;100.00;99470.53;5588730;31;34274;-68
2022/04/24 06:44:33;;;;;;;23.48;13.73;;;;;;;11.75;100.00;99467.34;5589210;31;32639;-68
2022/04/24 06:47:36;;;;;;;22.45;15.23;;;;;;;11.81;100.00;99459.59;5589887;31;34569;-68
2022/04/24 06:50:41;;;;;;;24.87;15.90;;;;;;;12.41;100.00;99456.91;5589140;31;33132;-68
2022/04/24 06:53:44;;;;;;;23.73;15.20;;;;;;;12.60;100.00;99456.12;5575999;31;33684;-68
2022/04/24 06:56:46;;;;;;;24.70;15.65;;;;;;;13.01;100.00;99449.81;5575945;31;33264;-68
2022/04/24 06:59:49;;;;;;;25.20;14.52;;;;;;;13.12;100.00;99453.72;5589909;31;34399;-68
2022/04/24 07:02:52;;;;;;;23.38;14.05;;;;;;;13.49;97.63;99464.50;5576052;31;32438;-68
2022/04/24 07:05:58;;;;;;;22.98;12.63;;;;;;;13.56;97.75;99448.47;5588785;31;32518;-67
2022/04/24 07:09:00;;;;;;;22.58;13.32;;;;;;;14.51;91.95;99453.00;5589759;31;34049;-68
2022/04/24 07:12:03;;;;;;;20.85;12.15;;;;;;;13.83;94.54;99454.56;5575762;31;32171;-68
2022/04/24 07:15:06;;;;;;;20.95;13.23;;;;;;;14.44;96.67;99448.72;5575721;31;32756;-68
2022/04/24 07:18:10;;;;;;;21.55;13.35;;;;;;;14.85;88.94;99451.72;5589400;31;34699;-68
2022/04/24 07:21:13;;;;;;;20.90;12.95;;;;;;;14.39;91.17;99452.03;5588964;31;32449;-68
2022/04/24 07:24:16;;;;;;;20.52;12.15;;;;;;;14.71;89.35;99445.69;5588673;31;33473;-68
2022/04/24 07:27:20;;;;;;;18.75;11.65;;;;;;;15.16;88.01;99450.81;5589093;31;32336;-69
2022/04/24 07:30:23;;;;;;;17.15;11.80;;;;;;;15.37;85.94;99444.25;5589559;31;34608;-68
2022/04/24 07:33:26;;;;;;;17.55;12.15;;;;;;;15.85;84.33;99444.34;5588851;31;32495;-68
2022/04/24 07:36:29;;;;;;;18.50;12.20;;;;;;;16.71;81.72;99433.28;5587471;31;32775;-68
2022/04/24 07:39:31;;;;;;;16.40;11.30;;;;;;;16.22;82.13;99427.19;5588623;31;34042;-67
2022/04/24 07:42:47;;;;;;;15.88;10.73;;;;;;;17.27;76.95;99428.22;5588405;31;34062;-67
2022/04/24 07:45:50;;;;;;;19.48;11.63;;;;;;;17.10;76.11;99429.13;5588576;31;32681;-68
2022/04/24 07:48:53;;;;;;;16.92;11.00;;;;;;;16.71;78.51;99428.75;5588868;31;32375;-68
2022/04/24 07:51:55;;;;;;;21.17;12.95;;;;;;;16.94;77.06;99436.81;5589345;31;34691;-68
2022/04/24 07:54:58;;;;;;;17.77;11.25;;;;;;;18.17;73.17;99428.47;5589319;31;34644;-68
2022/04/24 07:58:01;;;;;;;15.73;10.68;;;;;;;18.00;71.49;99430.31;5588666;31;33670;-68
2022/04/24 08:01:04;;;;;;;16.75;11.02;;;;;;;18.47;71.50;99422.84;5588479;31;32523;-68
2022/04/24 08:04:10;;;;;;;17.40;10.95;;;;;;;17.63;74.74;99420.94;5589134;31;35123;-68
2022/04/24 08:07:12;;;;;;;15.25;10.23;;;;;;;18.41;70.81;99418.44;5589235;31;33998;-68
2022/04/24 08:10:15;;;;;;;16.37;10.57;;;;;;;18.76;70.10;99418.25;5588203;31;32448;-68
2022/04/24 08:13:19;;;;;;;17.65;10.23;;;;;;;17.91;72.22;99420.19;5588523;31;33555;-68
2022/04/24 08:16:26;;;;;;;17.20;10.40;;;;;;;18.21;72.29;99426.94;5588270;31;32551;-68
2022/04/24 08:19:28;;;;;;;14.60;10.68;;;;;;;19.31;67.68;99412.09;5588745;31;34051;-69
2022/04/24 08:22:43;;;;;;;15.90;9.60;;;;;;;18.19;70.28;99385.28;5587843;31;32692;-68
2022/04/24 08:25:46;;;;;;;14.43;9.65;;;;;;;18.84;70.50;99390.16;5587770;31;32823;-68
2022/04/24 08:28:49;;;;;;;14.10;9.02;;;;;;;19.29;65.86;99379.25;5587630;31;33179;-69
2022/04/24 08:31:52;;;;;;;13.40;9.18;;;;;;;18.87;68.13;99369.00;5587909;31;32394;-70
2022/04/24 08:34:56;;;;;;;14.15;9.57;;;;;;;19.40;65.68;99379.16;5588089;31;32426;-69
2022/04/24 08:37:59;;;;;;;15.23;8.75;;;;;;;20.00;63.72;99369.37;5574869;31;32712;-69
2022/04/24 08:41:02;;;;;;;13.23;9.02;;;;;;;20.53;60.55;99372.06;5588545;31;33907;-70
2022/04/24 08:44:07;;;;;;;16.12;8.38;;;;;;;19.59;65.16;99362.72;5587625;31;32782;-69
2022/04/24 08:47:10;;;;;;;12.25;7.90;;;;;;;20.50;60.58;99358.28;5588219;31;32864;-69
2022/04/24 08:50:12;;;;;;;15.02;8.02;;;;;;;21.58;57.95;99365.75;5591050;31;35321;-69
2022/04/24 08:53:15;;;;;;;12.95;7.68;;;;;;;21.09;56.77;99348.19;5589906;31;33235;-69
2022/04/24 08:56:18;;;;;;;13.43;7.85;;;;;;;20.15;60.22;99348.78;5590293;31;34690;-69
2022/04/24 08:59:21;;;;;;;12.57;7.72;;;;;;;20.21;61.16;99350.47;5577012;31;33708;-69
2022/04/24 09:02:24;;;;;;;11.38;7.53;;;;;;;19.96;62.62;99344.84;5589743;31;32811;-70
2022/04/24 09:05:30;;;;;;;12.80;7.30;;;;;;;18.90;64.21;99335.44;5590520;31;34708;-70
2022/04/24 09:08:35;;;;;;;11.73;7.80;;;;;;;18.40;65.69;99325.50;5589855;31;32471;-69
2022/04/24 09:12:13;;;;;;;11.57;6.70;;;;;;;18.76;65.44;99313.47;5589448;31;32448;-68
2022/04/24 09:15:19;;;;;;;11.23;6.72;;;;;;;18.42;65.67;99319.88;5590417;31;33892;-67
2022/04/24 09:18:22;;;;;;;9.10;5.87;;;;;;;18.82;63.45;99311.69;5589922;31;34196;-67
2022/04/24 09:21:25;;;;;;;11.12;5.87;;;;;;;18.57;64.09;99312.94;5590152;31;34372;-68
2022/04/24 09:24:43;;;;;;;8.50;5.30;;;;;;;19.25;62.05;99316.28;5588817;31;33261;-68
2022/04/24 09:27:52;;;;;;;11.82;6.47;;;;;;;19.61;59.88;99307.59;5589824;31;32603;-68
2022/04/24 09:30:55;;;;;;;9.00;5.67;;;;;;;18.53;63.51;99310.94;5590290;31;33925;-68
2022/04/24 09:33:59;;;;;;;9.82;5.45;;;;;;;18.81;64.57;99313.53;5590186;31;34063;-68
2022/04/24 09:37:08;;;;;;;6.90;4.75;;;;;;;18.82;64.00;99303.59;5589284;31;32847;-68
2022/04/24 09:40:11;;;;;;;7.77;3.87;;;;;;;20.12;59.24;99298.16;5590371;31;34051;-67
2022/04/24 09:43:17;;;;;;;6.95;4.60;;;;;;;20.98;55.45;99297.97;5590936;31;34533;-68
2022/04/24 09:46:28;;;;;;;4.78;3.25;;;;;;;20.95;54.58;99296.62;5590833;31;33937;-69
2022/04/24 09:49:35;;;;;;;4.60;2.80;;;;;;;21.32;53.77;99306.53;5589282;31;33198;-68
2022/04/24 09:52:48;;;;;;;4.37;2.50;;;;;;;19.76;55.24;99296.16;5590149;31;33883;-67
2022/04/24 09:55:51;;;;;;;5.93;2.65;;;;;;;20.31;54.56;99299.41;5589289;31;32811;-68
2022/04/24 09:58:56;;;;;;;5.40;2.22;;;;;;;20.15;55.00;99294.94;5588708;31;32515;-67
2022/04/24 10:02:01;;;;;;;3.28;1.98;;;;;;;20.08;54.11;99290.84;5589204;31;32665;-67
2022/04/24 10:05:09;;;;;;;2.72;1.20;;;;;;;19.81;55.22;99301.59;5590267;31;34001;-69
2022/04/24 10:08:13;;;;;;;2.55;1.00;;;;;;;19.77;52.41;99305.88;5589165;31;33752;-66
2022/04/24 10:11:23;;;;;;;2.97;1.00;;;;;;;19.65;51.41;99305.22;5590200;31;34156;-68
2022/04/24 10:14:25;;;;;;;2.53;1.05;;;;;;;19.59;52.70;99307.03;5590141;31;34560;-69
2022/04/24 10:17:52;;;;;;;3.83;1.00;;;;;;;19.43;52.21;99315.97;5589111;31;32463;-68
2022/04/24 10:21:06;;;;;;;1.45;0.80;;;;;;;19.30;52.51;99327.91;5589300;31;33412;-68
2022/04/24 10:24:11;;;;;;;2.25;0.82;;;;;;;18.89;52.13;99328.41;5589510;31;33995;-67
2022/04/24 10:27:14;;;;;;;1.33;0.50;;;;;;;18.87;49.25;99335.94;5589741;31;34156;-67
2022/04/24 10:30:23;;;;;;;1.50;0.50;;;;;;;18.71;49.70;99351.00;5589892;31;34012;-67
2022/04/24 10:33:30;;;;;;;1.42;0.52;;;;;;;18.81;50.30;99342.28;5589260;31;32618;-67
2022/04/24 10:36:33;;;;;;;1.98;0.45;;;;;;;18.62;55.82;99336.38;5589982;31;34216;-66
2022/04/24 10:39:37;;;;;;;3.25;0.70;;;;;;;17.41;55.59;99332.25;5589862;31;34054;-67
2022/04/24 10:42:40;;;;;;;3.37;0.50;;;;;;;17.31;56.13;99324.00;5589013;31;33997;-66
2022/04/24 10:45:49;;;;;;;2.87;0.60;;;;;;;17.50;56.13;99340.72;5589265;31;32511;-66
2022/04/24 10:48:54;;;;;;;4.20;0.52;;;;;;;17.39;55.11;99331.66;5588840;31;34502;-66
2022/04/24 10:52:03;;;;;;;1.12;0.73;;;;;;;17.46;55.28;99336.91;5589164;31;33481;-66
2022/04/24 10:55:12;;;;;;;1.37;0.52;;;;;;;17.45;55.71;99316.50;5588944;31;32946;-67
2022/04/24 10:58:26;;;;;;;1.37;0.73;;;;;;;17.58;55.90;99324.25;5589774;31;33990;-67
2022/04/24 11:01:33;;;;;;;2.37;0.80;;;;;;;17.51;56.35;99326.28;5588961;31;32457;-67
2022/04/24 11:04:41;;;;;;;3.58;1.00;;;;;;;17.67;57.48;99325.56;5589918;31;33842;-67
2022/04/24 11:08:03;;;;;;;1.50;0.75;;;;;;;17.58;58.59;99326.94;5589735;31;33398;-68
2022/04/24 11:11:06;;;;;;;2.17;0.77;;;;;;;17.79;58.22;99324.44;5587980;31;32352;-68
2022/04/24 11:14:09;;;;;;;2.12;0.80;;;;;;;17.82;58.34;99328.50;5588710;31;33146;-68
2022/04/24 11:17:11;;;;;;;0.77;0.60;;;;;;;17.73;56.74;99305.81;5588768;31;32543;-66
2022/04/24 11:20:16;;;;;;;2.95;0.75;;;;;;;17.70;57.56;99331.25;5588914;31;33090;-67
2022/04/24 11:23:20;;;;;;;1.62;0.65;;;;;;;17.35;58.93;99335.88;5575818;31;32694;-68
2022/04/24 11:26:23;;;;;;;1.08;0.60;;;;;;;17.06;59.26;99340.34;5589506;31;34652;-66
2022/04/24 11:29:26;;;;;;;2.08;0.70;;;;;;;16.92;60.12;99344.34;5589040;31;33253;-68
2022/04/24 11:32:28;;;;;;;2.65;0.80;;;;;;;16.80;59.74;99340.81;5588796;31;33162;-66
2022/04/24 11:35:36;;;;;;;1.87;0.70;;;;;;;16.68;60.26;99348.88;5589555;31;34214;-66
2022/04/24 11:38:39;;;;;;;3.30;0.73;;;;;;;16.57;60.90;99351.50;5589185;31;33967;-67
2022/04/24 11:41:46;;;;;;;2.83;0.80;;;;;;;16.58;61.55;99362.03;5589645;31;34650;-67
2022/04/24 11:51:33;;;;;;;4.93;0.80;;;;;;;16.98;61.18;99347.94;5588429;31;33380;-67
2022/04/24 11:54:44;;;;;;;4.30;1.20;;;;;;;17.08;61.91;99338.28;5588475;31;32706;-67
2022/04/24 11:57:59;;;;;;;2.78;1.40;;;;;;;17.08;62.20;99340.94;5589642;31;34660;-68
2022/04/24 12:01:04;;;;;;;1.40;0.80;;;;;;;16.81;64.04;99348.62;5588596;31;33503;-67
2022/04/24 12:04:07;;;;;;;2.83;0.80;;;;;;;16.92;68.71;99349.69;5589256;31;34570;-68
2022/04/24 12:07:10;;;;;;;1.20;0.80;;;;;;;17.30;65.60;99336.59;5588387;31;34269;-67
2022/04/24 12:10:13;;;;;;;4.80;0.73;;;;;;;17.89;62.69;99314.97;5588207;31;33908;-67
2022/04/24 12:13:21;;;;;;;1.95;1.00;;;;;;;18.97;61.23;99320.78;5588414;31;33511;-69
2022/04/24 12:16:26;;;;;;;2.35;0.90;;;;;;;19.43;59.40;99315.97;5575179;31;33072;-67
2022/04/24 12:19:30;;;;;;;2.85;1.20;;;;;;;19.61;58.59;99307.59;5588900;31;34069;-68
2022/04/24 12:22:37;;;;;;;1.75;1.00;;;;;;;20.32;56.67;99305.63;5587318;31;33932;-67
2022/04/24 12:25:50;;;;;;;4.78;1.50;;;;;;;20.85;53.93;99287.66;5588863;31;35451;-66
2022/04/24 12:29:05;;;;;;;3.83;1.73;;;;;;;20.60;55.73;99297.22;5587710;31;32872;-69
2022/04/24 12:32:12;;;;;;;4.30;1.70;;;;;;;23.05;48.48;99297.47;5587460;31;32524;-68
2022/04/24 12:35:35;;;;;;;3.22;1.62;;;;;;;22.31;50.03;99287.31;5587838;31;33959;-69
2022/04/24 12:38:37;;;;;;;3.25;1.80;;;;;;;21.54;52.74;99293.66;5587686;31;32450;-68
2022/04/24 12:41:40;;;;;;;5.05;1.95;;;;;;;21.63;53.79;99300.16;5574984;31;33246;-68
2022/04/24 12:44:44;;;;;;;4.25;2.00;;;;;;;23.52;46.97;99292.47;5574845;31;34098;-68
2022/04/24 12:47:48;;;;;;;6.80;1.92;;;;;;;22.85;49.47;99288.34;5588682;31;34576;-68
2022/04/24 12:50:54;;;;;;;3.05;1.70;;;;;;;21.84;52.86;99285.63;5587787;31;33446;-68
2022/04/24 12:54:01;;;;;;;6.25;2.10;;;;;;;20.24;55.82;99282.63;5588391;31;34664;-68
2022/04/24 12:57:05;;;;;;;4.72;1.98;;;;;;;18.74;60.37;99277.16;5588165;31;34239;-69
2022/04/24 13:00:08;;;;;;;5.82;2.35;;;;;;;19.19;59.94;99271.56;5588425;31;34676;-69
2022/04/24 13:03:13;;;;;;;5.22;2.17;;;;;;;21.92;52.72;99268.09;5587358;31;33202;-68
2022/04/24 13:06:18;;;;;;;3.95;1.80;;;;;;;20.50;55.08;99275.59;5588729;31;34305;-67
2022/04/24 13:09:21;;;;;;;3.92;1.83;;;;;;;21.06;53.66;99275.88;5586992;31;32750;-67
2022/04/24 13:12:25;;;;;;;4.00;2.10;;;;;;;22.02;51.16;99273.53;5588092;31;34458;-68
2022/04/24 13:15:31;;;;;;;5.28;2.33;;;;;;;21.81;51.46;99267.25;5587588;31;34042;-68
2022/04/24 13:18:34;;;;;;;5.50;2.10;;;;;;;20.78;53.90;99266.31;5587727;31;34057;-67
2022/04/24 13:21:38;;;;;;;6.12;1.80;;;;;;;20.50;54.96;99267.50;5574084;31;33751;-67
2022/04/24 13:24:41;;;;;;;5.70;2.08;;;;;;;19.89;56.90;99253.53;5587742;31;34000;-67
2022/04/24 13:27:44;;;;;;;5.60;2.22;;;;;;;19.44;58.78;99247.69;5587956;31;34805;-66
2022/04/24 13:30:49;;;;;;;5.45;2.25;;;;;;;18.67;62.61;99228.97;5587980;31;33944;-67
2022/04/24 13:33:52;;;;;;;3.65;2.62;;;;;;;18.47;63.25;99223.28;5587194;31;33941;-67
2022/04/24 13:40:18;;;;;;;1.35;0.98;;;;;;;17.92;66.94;99231.28;5589649;31;32557;-66
2022/04/24 13:43:23;;;;;;;2.60;1.27;;;;;;;17.45;63.88;99239.56;5576863;31;32655;-67
2022/04/24 13:46:29;;;;;;;4.80;1.50;;;;;;;17.35;68.10;99237.50;5589718;31;32548;-66
2022/04/24 13:49:33;;;;;;;6.85;2.00;;;;;;;17.24;71.09;99248.25;5590464;31;33921;-68
2022/04/24 13:52:36;;;;;;;4.03;1.73;;;;;;;16.95;75.61;99226.78;5589696;31;32734;-67
2022/04/24 13:55:39;;;;;;;4.82;1.70;;;;;;;16.32;82.85;99233.94;5590493;31;34007;-69
2022/04/24 13:58:41;;;;;;;7.62;1.80;;;;;;;15.69;88.60;99215.81;5590223;31;34814;-69
2022/04/24 14:01:46;;;;;;;2.05;1.65;;;;;;;15.21;99.16;99210.53;5589752;31;33136;-69
2022/04/24 14:04:49;;;;;;;3.87;1.80;;;;;;;14.68;100.00;99237.03;5589505;31;32433;-66
2022/04/24 14:07:55;;;;;;;2.90;1.65;;;;;;;14.40;100.00;99242.88;5590041;31;34559;-67
2022/04/24 14:11:00;;;;;;;3.08;1.70;;;;;;;14.20;100.00;99251.03;5589514;31;33082;-69
2022/04/24 14:14:03;;;;;;;5.22;1.62;;;;;;;14.13;100.00;99247.63;5589253;31;33837;-68
2022/04/24 14:17:06;;;;;;;3.65;1.55;;;;;;;14.13;100.00;99239.63;5590466;31;34416;-68
2022/04/24 14:20:10;;;;;;;3.10;2.00;;;;;;;14.33;100.00;99224.22;5589285;31;34610;-68
2022/04/24 14:23:32;;;;;;;3.72;2.10;;;;;;;14.85;97.23;99219.41;5590020;31;34138;-68